Terminal Aerodrome Forecast
Issued by NWS

Home | Current Version | Previous Version | Text Only | Print | Product List | Glossary On
Versions: 1 2 3 4 5 6 7 8 9 10 11 12 13 14 15 16 17 18 19 20 21 22 23 24 25 26 27 28 29 30 31
000
FTUS45 KBOU 202145 AAB
TAFBJC
TAF AMD
KBJC 202145Z 2022/2118 10010KT P6SM VCTS SCT025 BKN050CB OVC080
      TEMPO 2022/2023 -SHRA OVC025
     FM202300 05009KT 5SM -SHRA BR SCT015 OVC025
     FM210200 02011KT 3SM -SHRA BR BKN008 OVC014
     FM210400 01008KT P6SM -SHRA SCT008 OVC014
      TEMPO 2107/2111 3SM SHRA BR OVC008
     FM211200 33011KT 5SM -SHRA BR SCT008 OVC014
     FM211500 02011KT P6SM SCT018 OVC030=

USA.gov is the U.S. government's official web portal to all federal, state and local government web resources and services.